クライストチャーチ の空港の天気 - METARとTAF

クライストチャーチ国際空港 ( NZCH / CHC ) - ニュージーランド クライストチャーチ
飛行場実況気象(Metar)
観測時間10/21 06:00 NZDT (10/20 17:00 UTC)
風向・風速南西 3m/s
視程10km以上
天気現象
少しの雲 雲底高度 3050m
気温10℃
湿度76%
気圧1022hPa
METARNZCH 201700Z AUTO 23005KT 9999 FEW100/// 10/06 Q1022 NOSIG
過去の天気等 Google飛行場航空写真 Wunderground天気予報

過去48時間のMETAR

飛行場予報(TAF)
発表時間: 10/21 00:08 NZDT (10/20 11:08 UTC)
予報対象時間: 21日1時 NZDT ~ 22日1時 NZDT
風向・風速西 3m/s
視程10km以上
なし
21日11時 NZDT ~ 21日13時 NZDT に徐々に
風向・風速東北東 6m/s
21日20時 NZDT から
風向・風速不定 1m/s
視程10km以上
少しの雲 雲底高度 1520m
21日22時 NZDT ~ 21日24時 NZDT に徐々に
全天の8割程度の雲 雲底高度 300m
TAF NZCH 201108Z 2012/2112 28005KT CAVOK
BECMG 2022/2100 06012KT
FM210700 VRB02KT 9999 FEW050
BECMG 2109/2111 BKN010